createdAt,value
2022-09-12T00:00:15.850Z,12.87
2022-09-12T00:02:42.499Z,12.84
2022-09-12T00:05:09.209Z,12.84
2022-09-12T00:07:35.846Z,12.82
2022-09-12T00:10:02.587Z,12.79
2022-09-12T00:12:29.257Z,12.77
2022-09-12T00:14:55.884Z,12.73
2022-09-12T00:17:22.518Z,12.73
2022-09-12T00:19:49.144Z,12.69
2022-09-12T00:22:15.820Z,12.65
2022-09-12T00:24:42.537Z,12.65
2022-09-12T00:27:09.296Z,12.63
2022-09-12T00:29:35.962Z,12.59
2022-09-12T00:32:02.743Z,12.58
2022-09-12T00:34:29.386Z,12.55
2022-09-12T00:36:56.354Z,12.52
2022-09-12T00:39:22.988Z,12.48
2022-09-12T00:41:50.114Z,12.48
2022-09-12T00:44:16.767Z,12.45
2022-09-12T00:46:52.454Z,12.44
2022-09-12T00:49:27.175Z,12.40
2022-09-12T00:52:00.006Z,12.38
2022-09-12T00:54:30.390Z,12.36
2022-09-12T00:57:03.579Z,12.35
2022-09-12T00:59:43.504Z,12.31
2022-09-12T01:02:11.123Z,12.30
2022-09-12T01:04:40.931Z,12.27
2022-09-12T01:07:08.771Z,12.21
2022-09-12T01:09:38.052Z,12.19
2022-09-12T01:12:06.105Z,12.16
2022-09-12T01:14:32.938Z,12.15
2022-09-12T01:16:59.711Z,12.12
2022-09-12T01:19:46.389Z,12.11
2022-09-12T01:22:35.287Z,12.06
2022-09-12T01:25:17.825Z,12.06
2022-09-12T01:28:03.965Z,12.03
2022-09-12T01:30:42.999Z,12.01
2022-09-12T01:33:46.885Z,11.98
2022-09-12T01:36:38.340Z,11.95
2022-09-12T01:39:31.563Z,11.90
2022-09-12T01:42:13.782Z,11.86
2022-09-12T01:44:57.248Z,11.84
2022-09-12T01:47:45.486Z,11.81
2022-09-12T01:50:22.866Z,11.81
2022-09-12T01:52:54.557Z,11.78
2022-09-12T01:55:25.201Z,11.78
2022-09-12T01:57:57.530Z,11.76
2022-09-12T02:00:24.789Z,11.74
2022-09-12T02:02:58.063Z,11.72
2022-09-12T02:05:39.311Z,11.70
2022-09-12T02:08:30.013Z,11.67
2022-09-12T02:11:01.411Z,11.63
2022-09-12T02:14:23.330Z,11.63
2022-09-12T02:16:55.384Z,11.58
2022-09-12T02:19:28.101Z,11.55
2022-09-12T02:21:58.504Z,11.53
2022-09-12T02:24:31.886Z,11.54
2022-09-12T02:27:07.574Z,11.51
2022-09-12T02:29:34.208Z,11.49
2022-09-12T02:32:24.328Z,11.49
2022-09-12T02:35:07.478Z,11.46
2022-09-12T02:37:46.117Z,11.45
2022-09-12T02:40:13.751Z,11.42
2022-09-12T02:42:40.570Z,11.41
2022-09-12T02:45:08.022Z,11.42
2022-09-12T02:47:39.391Z,11.38
2022-09-12T02:50:08.129Z,11.38
2022-09-12T02:52:36.071Z,11.36
2022-09-12T02:55:05.313Z,11.33
2022-09-12T02:57:32.183Z,11.29
2022-09-12T03:00:01.741Z,11.28
2022-09-12T03:02:56.156Z,11.27
2022-09-12T03:05:28.627Z,11.18
2022-09-12T03:08:32.396Z,11.14
2022-09-12T03:11:24.955Z,11.12
2022-09-12T03:14:01.994Z,11.11
2022-09-12T03:16:31.865Z,11.09
2022-09-12T03:19:06.326Z,11.08
2022-09-12T03:21:59.081Z,11.08
2022-09-12T03:24:53.425Z,11.06
2022-09-12T03:27:37.345Z,11.02
2022-09-12T03:30:08.170Z,10.97
2022-09-12T03:32:41.422Z,10.97
2022-09-12T03:35:08.541Z,10.96
2022-09-12T03:37:38.085Z,10.93
2022-09-12T03:40:06.389Z,10.92
2022-09-12T03:42:33.392Z,10.89
2022-09-12T03:45:00.093Z,10.90
2022-09-12T03:47:26.799Z,10.85
2022-09-12T03:49:53.440Z,10.85
2022-09-12T03:52:20.189Z,10.81
2022-09-12T03:54:46.767Z,10.80
2022-09-12T03:57:13.553Z,10.81
2022-09-12T03:59:40.162Z,10.80
2022-09-12T04:02:06.938Z,10.77
2022-09-12T04:04:33.629Z,10.77
2022-09-12T04:07:00.161Z,10.77
2022-09-12T04:09:26.680Z,10.74
2022-09-12T04:11:53.264Z,10.74
2022-09-12T04:14:19.777Z,10.73
2022-09-12T04:16:46.380Z,10.72
2022-09-12T04:19:12.979Z,10.71
2022-09-12T04:21:40.088Z,10.67
2022-09-12T04:24:06.747Z,10.66
2022-09-12T04:26:33.376Z,10.61
2022-09-12T04:29:00.054Z,10.61
2022-09-12T04:31:26.920Z,10.59
2022-09-12T04:33:55.471Z,10.58
2022-09-12T04:36:22.903Z,10.55
2022-09-12T04:38:50.497Z,10.52
2022-09-12T04:41:23.254Z,10.51
2022-09-12T04:43:58.280Z,10.49
2022-09-12T04:46:26.482Z,10.47
2022-09-12T04:48:56.626Z,10.48
2022-09-12T04:51:29.952Z,10.45
2022-09-12T04:54:02.007Z,10.45
2022-09-12T04:56:29.386Z,10.41
2022-09-12T04:59:00.850Z,10.41
2022-09-12T05:01:29.790Z,10.40
2022-09-12T05:03:57.945Z,10.38
2022-09-12T05:06:28.148Z,10.36
2022-09-12T05:08:56.129Z,10.35
2022-09-12T05:11:32.991Z,10.35
2022-09-12T05:14:08.296Z,10.33
2022-09-12T05:16:34.928Z,10.33
2022-09-12T05:19:01.563Z,10.31
2022-09-12T05:21:28.326Z,10.27
2022-09-12T05:23:57.381Z,10.32
2022-09-12T05:26:24.373Z,10.32
2022-09-12T05:28:52.155Z,10.32
2022-09-12T05:31:26.797Z,10.28
2022-09-12T05:33:55.091Z,10.28
2022-09-12T05:36:29.815Z,10.30
2022-09-12T05:38:57.562Z,10.28
2022-09-12T05:41:26.180Z,10.27
2022-09-12T05:43:54.344Z,10.27
2022-09-12T05:46:23.382Z,10.26
2022-09-12T05:48:55.106Z,10.25
2022-09-12T05:51:28.214Z,10.27
2022-09-12T05:53:57.742Z,10.26
2022-09-12T05:56:30.124Z,10.25
2022-09-12T05:58:58.523Z,10.26
2022-09-12T06:01:26.213Z,10.24
2022-09-12T06:03:55.744Z,10.24
2022-09-12T06:06:25.304Z,10.26
2022-09-12T06:08:54.084Z,10.25
2022-09-12T06:11:24.509Z,10.24
2022-09-12T06:13:51.151Z,10.25
2022-09-12T06:16:22.842Z,10.26
2022-09-12T06:18:54.537Z,10.26
2022-09-12T06:21:22.617Z,10.28
2022-09-12T06:23:49.627Z,10.28
2022-09-12T06:26:18.037Z,10.29
2022-09-12T06:28:45.280Z,10.32
2022-09-12T06:31:14.435Z,11.74
2022-09-12T06:33:43.877Z,10.94
2022-09-12T06:36:21.593Z,10.72
2022-09-12T06:38:51.435Z,10.67
2022-09-12T06:41:17.971Z,10.63
2022-09-12T06:43:44.515Z,10.62
2022-09-12T06:46:13.194Z,10.62
2022-09-12T06:48:42.071Z,10.61
2022-09-12T06:51:15.087Z,10.63
2022-09-12T06:53:42.415Z,10.61
2022-09-12T06:56:14.378Z,10.65
2022-09-12T06:58:41.903Z,10.66
2022-09-12T07:01:15.732Z,10.69
2022-09-12T07:03:43.217Z,10.68
2022-09-12T07:06:14.026Z,10.68
2022-09-12T07:08:41.198Z,10.71
2022-09-12T07:11:15.257Z,10.74
2022-09-12T07:13:43.667Z,10.77
2022-09-12T07:16:13.822Z,10.79
2022-09-12T07:18:43.339Z,10.82
2022-09-12T07:21:14.991Z,10.86
2022-09-12T07:23:42.832Z,10.88
2022-09-12T07:26:13.983Z,10.91
2022-09-12T07:28:40.830Z,10.96
2022-09-12T07:31:07.486Z,10.98
2022-09-12T07:33:34.397Z,11.01
2022-09-12T07:36:05.814Z,11.05
2022-09-12T07:38:32.489Z,11.07
2022-09-12T07:40:59.168Z,11.11
2022-09-12T07:43:25.749Z,11.16
2022-09-12T07:45:56.539Z,11.19
2022-09-12T07:48:23.520Z,11.24
2022-09-12T07:51:04.937Z,11.29
2022-09-12T07:53:33.893Z,11.33
2022-09-12T07:56:00.901Z,11.37
2022-09-12T07:58:27.514Z,11.41
2022-09-12T08:00:54.135Z,11.45
2022-09-12T08:03:20.980Z,11.49
2022-09-12T08:05:47.599Z,11.53
2022-09-12T08:08:14.123Z,11.62
2022-09-12T08:10:40.698Z,11.65
2022-09-12T08:13:10.651Z,11.70
2022-09-12T08:15:37.456Z,11.74
2022-09-12T08:18:04.149Z,11.78
2022-09-12T08:20:31.040Z,11.85
2022-09-12T08:22:57.577Z,11.90
2022-09-12T08:25:24.219Z,11.98
2022-09-12T08:27:50.829Z,12.01
2022-09-12T08:30:18.452Z,12.09
2022-09-12T08:32:45.088Z,12.15
2022-09-12T08:35:12.076Z,12.23
2022-09-12T08:37:38.612Z,12.35
2022-09-12T08:40:08.335Z,12.38
2022-09-12T08:42:54.264Z,12.45
2022-09-12T08:45:32.990Z,12.53
2022-09-12T08:48:03.412Z,12.64
2022-09-12T08:50:30.179Z,12.72
2022-09-12T08:53:04.623Z,12.78
2022-09-12T08:55:37.645Z,12.89
2022-09-12T08:58:22.818Z,12.95
2022-09-12T09:01:16.008Z,13.07
2022-09-12T09:04:18.090Z,13.16
2022-09-12T09:06:53.488Z,13.21
2022-09-12T09:09:20.247Z,13.30
2022-09-12T09:12:10.035Z,13.38
2022-09-12T09:14:55.365Z,13.44
2022-09-12T09:17:25.409Z,13.53
2022-09-12T09:20:30.832Z,13.56
2022-09-12T09:23:15.365Z,13.67
2022-09-12T09:26:07.954Z,13.82
2022-09-12T09:28:54.004Z,13.86
2022-09-12T09:31:23.604Z,13.90
2022-09-12T09:33:54.167Z,13.94
2022-09-12T09:36:32.780Z,14.05
2022-09-12T09:39:25.056Z,14.08
2022-09-12T09:45:30.063Z,14.30
2022-09-12T09:48:08.591Z,14.27
2022-09-12T09:50:36.060Z,14.38
2022-09-12T09:53:03.831Z,14.45
2022-09-12T09:55:40.035Z,14.59
2022-09-12T09:58:06.941Z,14.62
2022-09-12T10:00:35.888Z,14.64
2022-09-12T10:03:14.635Z,14.74
2022-09-12T10:05:53.340Z,14.88
2022-09-12T10:08:26.506Z,14.86
2022-09-12T10:11:07.223Z,14.93
2022-09-12T10:13:43.397Z,15.01
2022-09-12T10:16:25.256Z,15.07
2022-09-12T10:19:24.844Z,15.13
2022-09-12T10:21:54.570Z,15.23
2022-09-12T10:24:41.814Z,15.28
2022-09-12T10:27:15.876Z,15.31
2022-09-12T10:29:51.876Z,15.32
2022-09-12T10:32:31.040Z,15.40
2022-09-12T10:35:04.306Z,15.49
2022-09-12T10:37:34.371Z,15.54
2022-09-12T10:40:02.397Z,15.65
2022-09-12T10:42:51.696Z,15.71
2022-09-12T10:45:29.046Z,15.83
2022-09-12T10:47:59.149Z,15.85
2022-09-12T10:50:27.336Z,15.91
2022-09-12T10:52:55.049Z,16.03
2022-09-12T10:55:29.722Z,16.04
2022-09-12T10:58:28.370Z,16.22
2022-09-12T11:01:02.114Z,16.32
2022-09-12T11:03:51.837Z,16.32
2022-09-12T11:06:26.550Z,16.40
2022-09-12T11:09:35.835Z,16.44
2022-09-12T11:12:13.721Z,16.52
2022-09-12T11:14:58.714Z,16.56
2022-09-12T11:17:25.432Z,16.64
2022-09-12T11:20:50.800Z,16.74
2022-09-12T11:23:17.425Z,16.87
2022-09-12T11:26:19.026Z,17.01
2022-09-12T11:29:00.671Z,17.05
2022-09-12T11:32:01.199Z,17.12
2022-09-12T11:34:57.204Z,17.15
2022-09-12T11:37:50.155Z,17.30
2022-09-12T11:40:20.628Z,17.35
2022-09-12T11:42:49.609Z,17.39
2022-09-12T11:45:22.657Z,17.43
2022-09-12T11:47:55.447Z,17.50
2022-09-12T11:50:26.956Z,17.53
2022-09-12T11:53:00.242Z,17.67
2022-09-12T11:55:32.544Z,17.78
2022-09-12T11:57:59.466Z,17.87
2022-09-12T12:00:36.461Z,17.93
2022-09-12T12:03:07.246Z,17.98
2022-09-12T12:06:12.728Z,18.00
2022-09-12T12:08:43.146Z,18.07
2022-09-12T12:11:12.201Z,18.13
2022-09-12T12:14:07.909Z,18.27
2022-09-12T12:16:38.806Z,18.27
2022-09-12T12:19:14.513Z,18.48
2022-09-12T12:21:44.697Z,18.49
2022-09-12T12:24:21.186Z,18.52
2022-09-12T12:26:53.569Z,18.64
2022-09-12T12:29:20.143Z,18.76
2022-09-12T12:31:58.761Z,18.78
2022-09-12T12:34:29.452Z,18.86
2022-09-12T12:36:56.083Z,18.88
2022-09-12T12:39:34.857Z,18.95
2022-09-12T12:42:02.130Z,18.98
2022-09-12T12:44:49.506Z,19.08
2022-09-12T12:47:25.333Z,19.15
2022-09-12T12:50:12.253Z,19.19
2022-09-12T12:53:01.960Z,19.21
2022-09-12T12:55:34.243Z,19.28
2022-09-12T12:58:03.038Z,19.40
2022-09-12T13:00:36.579Z,19.55
2022-09-12T13:03:09.077Z,19.59
2022-09-12T13:06:01.091Z,19.53
2022-09-12T13:08:33.519Z,19.65
2022-09-12T13:11:00.444Z,19.71
2022-09-12T13:13:53.502Z,19.81
2022-09-12T13:16:56.910Z,19.83
2022-09-12T13:19:29.365Z,19.89
2022-09-12T13:21:57.380Z,19.97
2022-09-12T13:24:24.087Z,19.99
2022-09-12T13:26:50.967Z,20.04
2022-09-12T13:29:20.955Z,20.16
2022-09-12T13:31:51.628Z,20.26
2022-09-12T13:34:26.041Z,20.35
2022-09-12T13:37:17.619Z,20.37
2022-09-12T13:39:49.811Z,20.36
2022-09-12T13:42:26.274Z,20.39
2022-09-12T13:45:01.897Z,20.42
2022-09-12T13:47:35.509Z,20.49
2022-09-12T13:50:05.166Z,20.58
2022-09-12T13:52:38.068Z,20.70
2022-09-12T13:55:24.095Z,20.68
2022-09-12T13:58:01.260Z,20.72
2022-09-12T14:00:30.190Z,20.71
2022-09-12T14:03:16.950Z,20.81
2022-09-12T14:05:48.101Z,20.92
2022-09-12T14:08:15.394Z,20.97
2022-09-12T14:10:45.026Z,20.95
2022-09-12T14:13:16.616Z,20.97
2022-09-12T14:15:50.135Z,21.06
2022-09-12T14:18:28.533Z,21.04
2022-09-12T14:21:00.651Z,21.17
2022-09-12T14:23:30.782Z,21.20
2022-09-12T14:26:00.183Z,21.24
2022-09-12T14:28:30.456Z,21.37
2022-09-12T14:31:06.904Z,21.43
2022-09-12T14:33:50.148Z,21.41
2022-09-12T14:36:22.198Z,21.46
2022-09-12T14:38:56.219Z,21.48
2022-09-12T14:41:29.926Z,21.53
2022-09-12T14:44:00.336Z,21.33
2022-09-12T14:46:32.744Z,21.50
2022-09-12T14:49:09.242Z,21.56
2022-09-12T14:51:40.037Z,21.65
2022-09-12T14:54:06.776Z,21.62
2022-09-12T14:56:53.441Z,21.68
2022-09-12T14:59:35.040Z,21.80
2022-09-12T15:02:13.790Z,21.87
2022-09-12T15:04:54.642Z,21.77
2022-09-12T15:07:36.553Z,21.74
2022-09-12T15:10:14.280Z,21.83
2022-09-12T15:12:40.913Z,21.91
2022-09-12T15:15:19.428Z,21.95
2022-09-12T15:17:46.176Z,21.89
2022-09-12T15:20:13.860Z,21.95
2022-09-12T15:22:41.862Z,22.00
2022-09-12T15:25:12.451Z,22.05
2022-09-12T15:27:42.425Z,22.06
2022-09-12T15:30:10.370Z,22.06
2022-09-12T15:32:37.442Z,22.09
2022-09-12T15:35:04.197Z,22.17
2022-09-12T15:37:31.110Z,22.17
2022-09-12T15:39:57.967Z,22.19
2022-09-12T15:42:33.253Z,22.26
2022-09-12T15:45:02.491Z,22.29
2022-09-12T15:47:29.514Z,22.30
2022-09-12T15:49:56.087Z,22.31
2022-09-12T15:52:22.648Z,22.32
2022-09-12T15:54:49.197Z,22.33
2022-09-12T15:57:15.731Z,22.32
2022-09-12T15:59:42.327Z,22.32
2022-09-12T16:02:11.464Z,22.26
2022-09-12T16:04:38.152Z,22.30
2022-09-12T16:07:04.781Z,22.31
2022-09-12T16:09:31.375Z,22.26
2022-09-12T16:11:58.029Z,22.17
2022-09-12T16:14:24.599Z,22.21
2022-09-12T16:16:55.998Z,21.95
2022-09-12T16:19:28.669Z,22.00
2022-09-12T16:21:55.214Z,22.02
2022-09-12T16:24:21.901Z,22.01
2022-09-12T16:26:48.508Z,21.98
2022-09-12T16:29:15.457Z,21.95
2022-09-12T16:31:45.500Z,21.96
2022-09-12T16:34:12.246Z,21.90
2022-09-12T16:36:38.785Z,21.87
2022-09-12T16:39:06.478Z,21.88
2022-09-12T16:41:33.037Z,21.85
2022-09-12T16:43:59.658Z,21.83
2022-09-12T16:46:28.953Z,21.74
2022-09-12T16:48:57.543Z,21.75
2022-09-12T16:51:31.233Z,21.74
2022-09-12T16:53:58.423Z,21.71
2022-09-12T16:56:25.589Z,21.69
2022-09-12T16:58:52.826Z,21.66
2022-09-12T17:01:21.903Z,21.64
2022-09-12T17:03:53.148Z,21.60
2022-09-12T17:06:20.170Z,21.58
2022-09-12T17:08:49.514Z,21.56
2022-09-12T17:11:19.428Z,21.50
2022-09-12T17:14:09.976Z,21.49
2022-09-12T17:16:40.232Z,21.44
2022-09-12T17:19:08.551Z,21.41
2022-09-12T17:21:35.651Z,21.37
2022-09-12T17:24:03.407Z,21.34
2022-09-12T17:26:30.064Z,21.29
2022-09-12T17:28:56.671Z,21.25
2022-09-12T17:31:23.315Z,21.20
2022-09-12T17:33:50.062Z,21.16
2022-09-12T17:36:17.984Z,21.10
2022-09-12T17:38:46.350Z,21.03
2022-09-12T17:41:17.701Z,20.99
2022-09-12T17:43:46.106Z,20.93
2022-09-12T17:46:12.869Z,20.87
2022-09-12T17:48:39.465Z,20.82
2022-09-12T17:51:10.330Z,20.75
2022-09-12T17:53:37.265Z,20.70
2022-09-12T17:56:05.230Z,20.63
2022-09-12T17:58:32.871Z,20.58
2022-09-12T18:01:31.946Z,20.50
2022-09-12T18:04:03.624Z,20.41
2022-09-12T18:06:32.432Z,20.36
2022-09-12T18:09:04.736Z,20.30
2022-09-12T18:11:32.170Z,20.24
2022-09-12T18:13:59.813Z,20.19
2022-09-12T18:16:26.903Z,20.12
2022-09-12T18:18:53.657Z,20.06
2022-09-12T18:21:20.582Z,20.01
2022-09-12T18:23:47.261Z,19.96
2022-09-12T18:26:14.558Z,19.89
2022-09-12T18:28:44.156Z,19.83
2022-09-12T18:31:14.134Z,19.76
2022-09-12T18:33:41.073Z,19.70
2022-09-12T18:36:10.577Z,19.64
2022-09-12T18:38:38.058Z,19.58
2022-09-12T18:41:06.755Z,19.52
2022-09-12T18:43:33.747Z,19.45
2022-09-12T18:46:08.752Z,19.39
2022-09-12T18:48:36.219Z,19.32
2022-09-12T18:51:06.794Z,19.26
2022-09-12T18:53:34.144Z,19.19
2022-09-12T18:56:02.416Z,19.14
2022-09-12T18:58:28.984Z,19.05
2022-09-12T19:00:55.860Z,19.03
2022-09-12T19:03:22.899Z,18.96
2022-09-12T19:05:49.428Z,18.89
2022-09-12T19:08:15.987Z,18.83
2022-09-12T19:10:42.596Z,18.76
2022-09-12T19:13:09.140Z,18.70
2022-09-12T19:15:39.753Z,18.64
2022-09-12T19:18:06.322Z,18.58
2022-09-12T19:20:36.048Z,18.52
2022-09-12T19:23:02.662Z,18.47
2022-09-12T19:25:29.366Z,18.40
2022-09-12T19:27:56.013Z,18.34
2022-09-12T19:30:22.559Z,18.29
2022-09-12T19:32:49.093Z,18.25
2022-09-12T19:35:15.821Z,18.18
2022-09-12T19:37:42.462Z,18.11
2022-09-12T19:40:09.484Z,18.06
2022-09-12T19:42:36.100Z,18.00
2022-09-12T19:45:02.635Z,17.95
2022-09-12T19:47:29.525Z,17.89
2022-09-12T19:49:56.027Z,17.84
2022-09-12T19:52:22.615Z,17.79
2022-09-12T19:54:49.169Z,17.73
2022-09-12T19:57:15.768Z,17.67
2022-09-12T19:59:42.979Z,17.62
2022-09-12T20:02:09.596Z,17.56
2022-09-12T20:04:36.870Z,17.52
2022-09-12T20:07:03.524Z,17.46
2022-09-12T20:09:30.323Z,17.41
2022-09-12T20:11:56.877Z,17.35
2022-09-12T20:14:23.559Z,17.32
2022-09-12T20:16:50.101Z,17.26
2022-09-12T20:19:16.714Z,17.21
2022-09-12T20:21:43.340Z,17.14
2022-09-12T20:24:12.751Z,17.09
2022-09-12T20:26:40.284Z,17.02
2022-09-12T20:29:08.166Z,16.99
2022-09-12T20:31:36.809Z,16.94
2022-09-12T20:34:04.412Z,16.88
2022-09-12T20:36:31.042Z,16.82
2022-09-12T20:39:02.719Z,16.78
2022-09-12T20:41:32.197Z,16.73
2022-09-12T20:43:59.227Z,16.65
2022-09-12T20:46:27.993Z,16.64
2022-09-12T20:48:56.377Z,16.59
2022-09-12T20:51:26.894Z,16.53
2022-09-12T20:53:54.859Z,16.49
2022-09-12T20:56:23.084Z,16.45
2022-09-12T20:58:51.297Z,16.38
2022-09-12T21:01:24.053Z,16.35
2022-09-12T21:03:51.857Z,16.30
2022-09-12T21:06:20.281Z,16.26
2022-09-12T21:08:49.593Z,16.21
2022-09-12T21:11:18.574Z,16.17
2022-09-12T21:13:46.083Z,16.12
2022-09-12T21:16:16.170Z,16.08
2022-09-12T21:18:47.265Z,16.05
2022-09-12T21:21:15.762Z,16.00
2022-09-12T21:23:42.653Z,15.96
2022-09-12T21:26:09.997Z,15.93
2022-09-12T21:28:36.798Z,15.89
2022-09-12T21:31:03.930Z,15.85
2022-09-12T21:33:30.662Z,15.81
2022-09-12T21:36:04.791Z,15.77
2022-09-12T21:38:32.213Z,15.72
2022-09-12T21:41:07.455Z,15.69
2022-09-12T21:43:37.048Z,15.64
2022-09-12T21:46:04.731Z,15.60
2022-09-12T21:48:31.941Z,15.56
2022-09-12T21:50:58.799Z,15.53
2022-09-12T21:53:25.819Z,15.49
2022-09-12T21:55:52.424Z,15.45
2022-09-12T21:58:19.628Z,15.41
2022-09-12T22:00:46.304Z,15.37
2022-09-12T22:03:12.891Z,15.35
2022-09-12T22:05:43.191Z,15.31
2022-09-12T22:08:11.238Z,15.27
2022-09-12T22:10:38.630Z,15.24
2022-09-12T22:13:05.458Z,15.20
2022-09-12T22:15:40.855Z,15.15
2022-09-12T22:18:07.835Z,15.11
2022-09-12T22:20:34.421Z,15.08
2022-09-12T22:23:23.825Z,15.04
2022-09-12T22:25:54.276Z,15.00
2022-09-12T22:28:21.320Z,14.96
2022-09-12T22:30:48.644Z,14.93
2022-09-12T22:33:15.221Z,14.89
2022-09-12T22:35:42.537Z,14.85
2022-09-12T22:38:09.351Z,14.81
2022-09-12T22:40:35.993Z,14.80
2022-09-12T22:43:02.656Z,14.77
2022-09-12T22:45:32.433Z,14.74
2022-09-12T22:48:00.731Z,14.68
2022-09-12T22:50:27.721Z,14.67
2022-09-12T22:52:54.323Z,14.64
2022-09-12T22:55:20.961Z,14.60
2022-09-12T22:57:47.602Z,14.58
2022-09-12T23:00:14.951Z,14.55
2022-09-12T23:02:41.591Z,14.54
2022-09-12T23:05:08.555Z,14.50
2022-09-12T23:07:35.693Z,14.46
2022-09-12T23:10:02.277Z,14.44
2022-09-12T23:12:28.956Z,14.39
2022-09-12T23:14:55.630Z,14.37
2022-09-12T23:17:22.208Z,14.35
2022-09-12T23:19:48.779Z,14.33
2022-09-12T23:22:15.364Z,14.28
2022-09-12T23:24:41.929Z,14.26
2022-09-12T23:27:08.971Z,14.23
2022-09-12T23:29:35.656Z,14.19
2022-09-12T23:32:03.605Z,14.17
2022-09-12T23:34:30.957Z,14.14
2022-09-12T23:36:57.686Z,14.07
2022-09-12T23:39:24.282Z,14.09
2022-09-12T23:41:51.067Z,14.07
2022-09-12T23:44:17.797Z,14.04
2022-09-12T23:46:44.411Z,14.03
2022-09-12T23:49:11.083Z,14.00
2022-09-12T23:51:37.616Z,13.96
2022-09-12T23:54:04.449Z,13.93
2022-09-12T23:56:31.027Z,13.91
2022-09-12T23:58:57.640Z,13.89
